Noriyoshimaru — JD3270 — position and weather

sailwx.info

Track history (hours):
 
Tides and Currents Weather Stations Pressure Air Temp Water Temp Dewpoint Dewpoint Depression Visibility Wind Speed Wind Dir Waves Ship Positions

Noriyoshimaru

Last reported at 2018-Jun-23 11:47 UTC. Time now 2018-Jun-24 10:56 UTC.
Position N 33°57' E 134°56'.

Length 64 m; draft 3.3 m.

Type: Tanker. MMSI: 431003089.

Date/timePositionNaut miles runAvg speedWind from/ knotsBaromVisibWave heightAir tempDewpointWater temp
2018-Jun-23 11:47N 33°57' E 134°56'910.3
2018-Jun-23 10:55N 34°04' E 134°49'28 6.6
2018-Jun-23 06:43N 34°21' E 134°23'  
2018-Jun-19 06:25N 34°29' E 134°28'23 3.5
2018-Jun-18 23:51N 34°43' E 134°51'2 3.5
2018-Jun-18 23:17N 34°41' E 134°50'1111.2
2018-Jun-18 22:20N 34°42' E 134°37'15 0.4
2018-Jun-17 09:46N 34°28' E 134°30'810.1
2018-Jun-17 08:55N 34°31' E 134°39'17 8.8
2018-Jun-17 07:01N 34°37' E 134°58'0 7.2
2018-Jun-17 06:58N 34°38' E 134°59'3 6.1
2018-Jun-17 06:30N 34°37' E 135°02'3 7.0
2018-Jun-17 06:00N 34°35' E 135°06'5 9.2
2018-Jun-17 05:28N 34°35' E 135°12'4 9.8
2018-Jun-17 05:00N 34°34' E 135°17'5 9.9
2018-Jun-17 04:30N 34°33' E 135°23'2 4.0
2018-Jun-17 04:00N 34°33' E 135°26'0 0.0
2018-Jun-16 23:12N 34°33' E 135°26'0 0.5
2018-Jun-16 23:00N 34°33' E 135°26'2 4.6
2018-Jun-16 22:29N 34°33' E 135°23'3 3.4
2018-Jun-16 21:43N 34°32' E 135°20'0 0.0
2018-Jun-16 06:48N 34°32' E 135°20'3 9.3
2018-Jun-16 06:30N 34°33' E 135°23'2 0.2
2018-Jun-15 22:55N 34°32' E 135°25'2 4.7
2018-Jun-15 22:30N 34°33' E 135°23'3 0.1
2018-Jun-14 15:08N 34°32' E 135°20'0 2.7
2018-Jun-14 14:58N 34°32' E 135°19'510.1
2018-Jun-14 14:29N 34°28' E 135°15'510.3
2018-Jun-14 14:00N 34°25' E 135°10'510.4
2018-Jun-14 13:29N 34°21' E 135°06'510.5
2018-Jun-14 13:00N 34°17' E 135°03'1211.3
2018-Jun-14 11:58N 34°05' E 135°02'511.3
2018-Jun-14 11:30N 33°60' E 135°02'  
Track history (hours):
 
Tides and Currents Weather Stations Pressure Air Temp Water Temp Dewpoint Dewpoint Depression Visibility Wind Speed Wind Dir Waves Ship Positions

Noriyoshimaru

Last reported at 2018-Jun-23 11:47 UTC. Time now 2018-Jun-24 10:56 UTC.
Position N 33°57' E 134°56'.

Length 64 m; draft 3.3 m.

Type: Tanker. MMSI: 431003089.

Date/timePositionNaut miles runAvg speedWind from/ knotsBaromVisibWave heightAir tempDewpointWater temp
2018-Jun-23 11:47N 33°57' E 134°56'910.3
2018-Jun-23 10:55N 34°04' E 134°49'28 6.6
2018-Jun-23 06:43N 34°21' E 134°23'  
2018-Jun-19 06:25N 34°29' E 134°28'23 3.5
2018-Jun-18 23:51N 34°43' E 134°51'2 3.5
2018-Jun-18 23:17N 34°41' E 134°50'1111.2
2018-Jun-18 22:20N 34°42' E 134°37'15 0.4
2018-Jun-17 09:46N 34°28' E 134°30'810.1
2018-Jun-17 08:55N 34°31' E 134°39'17 8.8
2018-Jun-17 07:01N 34°37' E 134°58'0 7.2
2018-Jun-17 06:58N 34°38' E 134°59'3 6.1
2018-Jun-17 06:30N 34°37' E 135°02'3 7.0
2018-Jun-17 06:00N 34°35' E 135°06'5 9.2
2018-Jun-17 05:28N 34°35' E 135°12'4 9.8
2018-Jun-17 05:00N 34°34' E 135°17'5 9.9
2018-Jun-17 04:30N 34°33' E 135°23'2 4.0
2018-Jun-17 04:00N 34°33' E 135°26'0 0.0
2018-Jun-16 23:12N 34°33' E 135°26'0 0.5
2018-Jun-16 23:00N 34°33' E 135°26'2 4.6
2018-Jun-16 22:29N 34°33' E 135°23'3 3.4
2018-Jun-16 21:43N 34°32' E 135°20'0 0.0
2018-Jun-16 06:48N 34°32' E 135°20'3 9.3
2018-Jun-16 06:30N 34°33' E 135°23'2 0.2
2018-Jun-15 22:55N 34°32' E 135°25'2 4.7
2018-Jun-15 22:30N 34°33' E 135°23'3 0.1
2018-Jun-14 15:08N 34°32' E 135°20'0 2.7
2018-Jun-14 14:58N 34°32' E 135°19'510.1
2018-Jun-14 14:29N 34°28' E 135°15'510.3
2018-Jun-14 14:00N 34°25' E 135°10'510.4
2018-Jun-14 13:29N 34°21' E 135°06'510.5
2018-Jun-14 13:00N 34°17' E 135°03'1211.3
2018-Jun-14 11:58N 34°05' E 135°02'511.3
2018-Jun-14 11:30N 33°60' E 135°02'  

Dump ship's entire track history